Time;durP1;ratioP1;P1;durP2;ratioP2;P2;SDS_P1;SDS_P2;PMS_P1;PMS_P2;Temp;Humidity;BMP_temperature;BMP_pressure;BME280_temperature;BME280_humidity;BME280_pressure;Samples;Min_cycle;Max_cycle;Signal;HPM_P1;HPM_P2
2022/07/31 00:02:20;;;;;;;12.52;7.40;;;18.90;99.90;;;;;;5051005;28;20029;-57
2022/07/31 00:04:45;;;;;;;4.63;3.30;;;18.80;99.90;;;;;;5051300;28;20018;-57
2022/07/31 00:07:11;;;;;;;6.75;3.30;;;18.80;99.90;;;;;;5051260;28;20065;-57
2022/07/31 00:09:37;;;;;;;4.13;3.17;;;18.70;99.90;;;;;;5051586;28;20029;-57
2022/07/31 00:12:03;;;;;;;3.50;3.00;;;18.70;99.90;;;;;;5051333;28;20041;-57
2022/07/31 00:14:29;;;;;;;4.22;3.00;;;18.70;99.90;;;;;;5051172;28;20025;-57
2022/07/31 00:16:56;;;;;;;6.35;3.03;;;18.70;99.90;;;;;;5050693;28;20112;-56
2022/07/31 00:19:22;;;;;;;4.82;3.30;;;18.60;99.90;;;;;;5051102;28;20026;-57
2022/07/31 00:21:47;;;;;;;4.40;3.05;;;18.60;99.90;;;;;;5051153;28;20040;-57
2022/07/31 00:24:13;;;;;;;7.20;3.38;;;18.50;99.90;;;;;;5051128;28;20035;-57
2022/07/31 00:26:39;;;;;;;5.90;3.30;;;18.40;99.90;;;;;;5051142;28;20048;-57
2022/07/31 00:29:05;;;;;;;3.63;3.20;;;18.40;99.90;;;;;;5054460;28;20040;-57
2022/07/31 00:31:31;;;;;;;5.93;2.95;;;18.40;99.90;;;;;;5054845;28;20061;-57
2022/07/31 00:33:57;;;;;;;4.88;2.83;;;18.40;99.90;;;;;;5054787;28;20059;-57
2022/07/31 00:36:23;;;;;;;4.93;3.00;;;18.40;99.90;;;;;;5054604;28;20021;-57
2022/07/31 00:38:49;;;;;;;4.63;3.40;;;18.40;99.90;;;;;;5054464;28;20041;-57
2022/07/31 00:41:14;;;;;;;4.05;3.00;;;18.30;99.90;;;;;;5054568;28;20044;-57
2022/07/31 00:43:40;;;;;;;4.03;3.05;;;18.20;99.90;;;;;;5054412;28;20048;-57
2022/07/31 00:46:06;;;;;;;4.50;3.10;;;18.20;99.90;;;;;;5054137;28;20117;-57
2022/07/31 00:48:32;;;;;;;4.60;2.90;;;18.10;99.90;;;;;;5054994;28;20036;-57
2022/07/31 00:50:58;;;;;;;3.75;3.10;;;18.10;99.90;;;;;;5054437;28;20025;-57
2022/07/31 00:53:24;;;;;;;3.35;3.05;;;18.00;99.90;;;;;;5054332;28;20053;-57
2022/07/31 00:55:50;;;;;;;4.28;3.30;;;18.00;99.90;;;;;;5054571;28;20032;-57
2022/07/31 00:58:16;;;;;;;4.50;3.10;;;18.00;99.90;;;;;;5053186;28;20091;-57
2022/07/31 01:00:41;;;;;;;3.97;2.92;;;18.00;99.90;;;;;;5053926;28;20116;-56
2022/07/31 01:03:07;;;;;;;4.60;3.00;;;18.00;99.90;;;;;;5054280;28;20025;-57
2022/07/31 01:05:33;;;;;;;3.97;3.10;;;17.90;99.90;;;;;;5054348;28;20028;-57
2022/07/31 01:07:58;;;;;;;6.70;3.33;;;17.90;99.90;;;;;;5054125;28;20480;-57
2022/07/31 01:10:56;;;;;;;4.75;3.30;;;17.90;99.90;;;;;;5053904;28;20378;-57
2022/07/31 01:13:57;;;;;;;4.60;3.22;;;17.80;99.90;;;;;;5054380;28;20112;-57
2022/07/31 01:16:27;;;;;;;5.63;3.50;;;17.70;99.90;;;;;;5049145;28;20037;-57
2022/07/31 01:18:55;;;;;;;3.28;2.92;;;17.70;99.90;;;;;;5053948;28;20444;-56
2022/07/31 01:22:00;;;;;;;6.25;3.30;;;17.60;99.90;;;;;;5054203;28;20025;-57
2022/07/31 01:24:34;;;;;;;4.82;3.30;;;17.60;99.90;;;;;;5050654;28;20572;-57
2022/07/31 01:27:09;;;;;;;5.28;3.17;;;17.60;99.90;;;;;;5053601;28;20119;-57
2022/07/31 01:29:40;;;;;;;6.03;3.78;;;17.50;99.90;;;;;;5053352;28;20383;-57
2022/07/31 01:32:31;;;;;;;4.00;3.42;;;17.30;99.90;;;;;;5053646;28;20444;-57
2022/07/31 01:35:05;;;;;;;4.78;3.30;;;17.40;99.90;;;;;;5053360;28;20025;-57
2022/07/31 01:37:37;;;;;;;4.18;3.42;;;17.40;99.90;;;;;;5053694;28;20429;-57
2022/07/31 01:40:07;;;;;;;4.25;3.40;;;17.40;99.90;;;;;;5052325;28;20414;-57
2022/07/31 01:42:35;;;;;;;4.43;3.30;;;17.40;99.90;;;;;;5053180;28;20032;-56
2022/07/31 01:45:02;;;;;;;5.90;3.40;;;17.30;99.90;;;;;;5052820;28;20025;-57
2022/07/31 01:47:30;;;;;;;4.63;3.45;;;17.30;99.90;;;;;;5053328;28;20083;-57
2022/07/31 01:49:57;;;;;;;3.97;3.60;;;17.30;99.90;;;;;;5052283;28;20035;-57
2022/07/31 01:52:25;;;;;;;4.00;3.58;;;17.30;99.90;;;;;;5053185;28;20391;-57
2022/07/31 01:54:53;;;;;;;5.43;3.85;;;17.00;99.90;;;;;;5052856;28;20036;-57
2022/07/31 01:57:22;;;;;;;3.42;3.10;;;16.90;99.90;;;;;;5053113;28;20470;-57
2022/07/31 01:59:49;;;;;;;4.20;3.30;;;17.00;99.90;;;;;;5052887;28;20036;-57
2022/07/31 02:02:16;;;;;;;4.85;3.20;;;17.00;99.90;;;;;;5053478;28;20071;-57
2022/07/31 02:04:42;;;;;;;3.90;3.50;;;17.00;99.90;;;;;;5051749;28;20371;-57
2022/07/31 02:07:09;;;;;;;4.07;3.30;;;17.00;99.90;;;;;;5051771;28;20033;-57
2022/07/31 02:09:36;;;;;;;4.75;3.30;;;17.00;99.90;;;;;;5053285;28;20036;-57
2022/07/31 02:12:03;;;;;;;4.30;3.50;;;17.00;99.90;;;;;;5053044;28;20033;-57
2022/07/31 02:14:30;;;;;;;6.68;3.75;;;16.90;99.90;;;;;;5052490;28;20386;-57
2022/07/31 02:16:58;;;;;;;4.35;3.20;;;16.80;99.90;;;;;;5052765;28;20032;-57
2022/07/31 02:19:24;;;;;;;4.20;3.40;;;16.60;99.90;;;;;;5053204;28;20389;-57
2022/07/31 02:21:50;;;;;;;4.10;3.70;;;16.70;99.90;;;;;;5052815;28;20546;-57
2022/07/31 02:24:16;;;;;;;4.25;3.85;;;16.70;99.90;;;;;;5052474;28;20025;-57
2022/07/31 02:26:43;;;;;;;5.55;3.70;;;16.70;99.90;;;;;;5052713;28;20040;-57
2022/07/31 02:29:11;;;;;;;6.05;3.90;;;16.60;99.90;;;;;;5052241;28;20067;-56
2022/07/31 02:31:38;;;;;;;10.27;4.68;;;16.60;99.90;;;;;;5052517;28;20032;-57
2022/07/31 02:34:04;;;;;;;8.25;4.70;;;16.50;99.90;;;;;;5052796;28;20477;-57
2022/07/31 02:36:33;;;;;;;5.68;4.22;;;16.50;99.90;;;;;;5052416;28;20079;-57
2022/07/31 02:38:59;;;;;;;5.45;4.40;;;16.50;99.90;;;;;;5052154;28;20524;-57
2022/07/31 02:41:25;;;;;;;6.97;4.47;;;16.50;99.90;;;;;;5052295;28;20489;-57
2022/07/31 02:43:52;;;;;;;4.70;3.85;;;16.50;99.90;;;;;;5051862;28;20468;-57
2022/07/31 02:46:18;;;;;;;3.83;3.40;;;16.40;99.90;;;;;;5052231;28;20033;-57
2022/07/31 02:48:44;;;;;;;7.22;3.80;;;16.40;99.90;;;;;;5051023;28;20025;-57
2022/07/31 02:51:10;;;;;;;4.13;3.70;;;16.50;99.90;;;;;;5051984;28;20021;-57
2022/07/31 02:53:36;;;;;;;6.20;3.83;;;16.40;99.90;;;;;;5052089;28;20441;-57
2022/07/31 02:56:04;;;;;;;4.60;3.45;;;16.40;99.90;;;;;;5052517;28;20078;-57
2022/07/31 02:58:30;;;;;;;4.22;3.60;;;16.40;99.90;;;;;;5051823;28;20060;-57
2022/07/31 03:01:04;;;;;;;3.85;3.30;;;16.50;99.90;;;;;;5052046;28;20057;-57
2022/07/31 03:03:30;;;;;;;5.40;3.92;;;16.40;99.90;;;;;;5050696;28;20489;-57
2022/07/31 03:05:56;;;;;;;7.18;3.90;;;16.40;99.90;;;;;;5051899;28;20025;-57
2022/07/31 03:08:22;;;;;;;6.78;3.78;;;16.40;99.90;;;;;;5051817;28;20033;-57
2022/07/31 03:10:49;;;;;;;7.20;3.42;;;16.40;99.90;;;;;;5051639;28;20030;-57
2022/07/31 03:13:17;;;;;;;5.55;4.30;;;16.30;99.90;;;;;;5052302;28;20453;-57
2022/07/31 03:15:44;;;;;;;6.53;3.95;;;16.40;99.90;;;;;;5051824;28;20033;-57
2022/07/31 03:18:13;;;;;;;4.72;3.40;;;16.30;99.90;;;;;;5050734;28;20409;-57
2022/07/31 03:20:40;;;;;;;6.05;3.47;;;16.20;99.90;;;;;;5051824;28;20027;-57
2022/07/31 03:23:06;;;;;;;8.32;4.28;;;16.20;99.90;;;;;;5051559;28;20032;-57
2022/07/31 03:25:32;;;;;;;7.20;4.28;;;16.20;99.90;;;;;;5051654;28;20082;-57
2022/07/31 03:27:59;;;;;;;8.07;4.63;;;16.20;99.90;;;;;;5051757;28;20509;-57
2022/07/31 03:30:25;;;;;;;12.00;5.43;;;16.30;99.90;;;;;;5051670;28;20107;-57
2022/07/31 03:32:55;;;;;;;8.70;5.50;;;16.20;99.90;;;;;;5051725;28;20115;-57
2022/07/31 03:35:21;;;;;;;9.00;5.60;;;16.20;99.90;;;;;;5052135;28;20021;-57
2022/07/31 03:37:47;;;;;;;9.20;5.97;;;16.30;99.90;;;;;;5051428;28;20032;-57
2022/07/31 03:40:12;;;;;;;11.13;6.63;;;16.30;99.90;;;;;;5051450;28;20029;-57
2022/07/31 03:42:39;;;;;;;11.25;6.85;;;16.30;99.90;;;;;;5051419;28;20036;-56
2022/07/31 03:45:07;;;;;;;12.70;7.43;;;16.20;99.90;;;;;;5051578;28;20040;-57
2022/07/31 03:47:33;;;;;;;12.75;7.28;;;16.20;99.90;;;;;;5052137;28;20485;-57
2022/07/31 03:50:00;;;;;;;8.25;6.03;;;16.10;99.90;;;;;;5051641;28;20024;-57
2022/07/31 03:52:27;;;;;;;10.73;7.00;;;16.10;99.90;;;;;;5051322;28;20441;-57
2022/07/31 03:54:54;;;;;;;11.52;7.50;;;16.20;99.90;;;;;;5051091;28;20021;-57
2022/07/31 03:57:20;;;;;;;12.13;8.30;;;16.10;99.90;;;;;;5051852;28;20037;-57
2022/07/31 03:59:49;;;;;;;12.52;8.77;;;16.10;99.90;;;;;;5051425;28;20029;-57
2022/07/31 04:02:15;;;;;;;17.63;8.27;;;16.10;99.90;;;;;;5051840;28;20032;-57
2022/07/31 04:04:42;;;;;;;12.75;8.23;;;16.00;99.90;;;;;;5056000;28;20405;-57
2022/07/31 04:07:08;;;;;;;10.27;8.05;;;15.90;99.90;;;;;;5055125;28;20041;-57
2022/07/31 04:09:34;;;;;;;13.75;7.85;;;15.90;99.90;;;;;;5054895;28;20543;-57
2022/07/31 04:11:59;;;;;;;9.18;8.20;;;15.90;99.90;;;;;;5055633;28;20035;-57
2022/07/31 04:14:25;;;;;;;10.35;7.40;;;15.90;99.90;;;;;;5055204;28;20025;-57
2022/07/31 04:16:51;;;;;;;8.48;7.68;;;15.90;99.90;;;;;;5055008;28;20024;-57
2022/07/31 04:19:16;;;;;;;13.07;7.78;;;16.10;99.90;;;;;;5053801;28;20032;-57
2022/07/31 04:21:42;;;;;;;11.90;8.70;;;16.10;99.90;;;;;;5055303;28;20029;-57
2022/07/31 04:24:10;;;;;;;14.52;8.27;;;16.20;99.90;;;;;;5054635;28;20021;-57
2022/07/31 04:26:36;;;;;;;8.88;7.32;;;16.10;99.90;;;;;;5054973;28;20151;-57
2022/07/31 04:29:01;;;;;;;11.60;7.00;;;16.10;99.90;;;;;;5055096;28;20116;-57
2022/07/31 04:31:27;;;;;;;7.72;7.03;;;16.10;99.90;;;;;;5054954;28;20029;-57
2022/07/31 04:33:53;;;;;;;15.70;7.70;;;16.10;99.90;;;;;;5054804;28;20059;-57
2022/07/31 04:36:18;;;;;;;15.10;8.07;;;16.20;99.90;;;;;;5054936;28;20028;-56
2022/07/31 04:38:44;;;;;;;16.08;8.20;;;16.20;99.90;;;;;;5054614;28;20032;-57
2022/07/31 04:41:10;;;;;;;11.00;8.60;;;16.20;99.90;;;;;;5054573;28;20026;-57
2022/07/31 04:43:35;;;;;;;9.27;8.10;;;16.20;99.90;;;;;;5054461;28;20074;-57
2022/07/31 04:46:01;;;;;;;17.85;8.40;;;16.20;99.90;;;;;;5054507;28;20025;-57
2022/07/31 04:48:27;;;;;;;10.23;7.70;;;16.20;99.90;;;;;;5054252;28;20469;-57
2022/07/31 04:50:52;;;;;;;10.68;7.60;;;16.20;99.90;;;;;;5054357;28;20104;-56
2022/07/31 04:53:18;;;;;;;10.73;8.00;;;16.30;99.90;;;;;;5054314;28;20116;-57
2022/07/31 04:56:31;;;;;;;8.60;7.55;;;16.30;99.90;;;;;;5054241;28;20021;-56
2022/07/31 04:58:29;;;;;;;10.48;8.20;;;16.30;99.90;;;;;;5054183;28;20029;-56
2022/07/31 05:00:55;;;;;;;11.93;8.65;;;16.30;99.90;;;;;;5054322;28;20025;-56
2022/07/31 05:03:21;;;;;;;18.60;10.57;;;16.30;99.90;;;;;;5054257;28;20474;-57
2022/07/31 05:05:46;;;;;;;14.63;10.55;;;16.20;99.90;;;;;;5054098;28;20063;-57
2022/07/31 05:08:12;;;;;;;18.83;10.63;;;16.20;99.90;;;;;;5053885;28;20021;-57
2022/07/31 05:13:22;;;;;;;12.07;9.43;;;16.10;99.90;;;;;;5054678;28;20500;-57
2022/07/31 05:15:47;;;;;;;12.52;9.20;;;16.00;99.90;;;;;;5053897;28;20041;-57
2022/07/31 05:18:13;;;;;;;11.75;9.20;;;15.80;99.90;;;;;;5053783;28;20466;-56
2022/07/31 05:20:39;;;;;;;11.13;8.93;;;15.90;99.90;;;;;;5053961;28;20388;-57
2022/07/31 05:23:04;;;;;;;9.10;8.20;;;15.90;99.90;;;;;;5053461;28;20045;-57
2022/07/31 05:25:30;;;;;;;8.48;7.40;;;15.90;99.90;;;;;;5053729;28;20021;-56
2022/07/31 05:27:56;;;;;;;9.20;7.78;;;16.00;99.90;;;;;;5053786;28;20068;-56
2022/07/31 05:30:21;;;;;;;9.23;8.32;;;16.10;99.90;;;;;;5053855;28;20067;-57
2022/07/31 05:32:47;;;;;;;8.50;7.70;;;16.20;99.90;;;;;;5053678;28;20512;-57
2022/07/31 05:35:13;;;;;;;8.98;7.93;;;16.20;99.90;;;;;;5053774;28;20108;-57
2022/07/31 05:37:38;;;;;;;11.88;8.10;;;16.30;99.90;;;;;;5053616;28;20493;-56
2022/07/31 05:40:05;;;;;;;11.00;8.20;;;16.40;99.90;;;;;;5053618;28;20386;-57
2022/07/31 05:42:30;;;;;;;7.97;7.28;;;16.50;99.90;;;;;;5053283;28;20033;-56
2022/07/31 05:44:56;;;;;;;7.30;6.65;;;16.50;99.90;;;;;;5053525;28;20033;-57
2022/07/31 05:47:21;;;;;;;8.15;7.35;;;16.50;99.90;;;;;;5052081;28;20033;-57
2022/07/31 05:49:47;;;;;;;9.10;7.32;;;16.70;99.90;;;;;;5053436;28;20104;-57
2022/07/31 05:52:15;;;;;;;17.20;8.40;;;16.70;99.90;;;;;;5053188;28;20474;-57
2022/07/31 05:54:41;;;;;;;13.55;8.70;;;16.80;99.90;;;;;;5053311;28;20021;-57
2022/07/31 05:57:07;;;;;;;9.98;8.60;;;16.90;99.90;;;;;;5053334;28;20025;-57
2022/07/31 05:59:34;;;;;;;10.25;9.10;;;16.90;99.90;;;;;;5052419;28;20037;-57
2022/07/31 06:02:00;;;;;;;12.57;10.15;;;16.90;99.90;;;;;;5053089;28;20029;-57
2022/07/31 06:04:25;;;;;;;11.82;10.63;;;17.00;99.90;;;;;;5051821;28;20029;-57
2022/07/31 06:06:51;;;;;;;12.30;10.48;;;17.10;99.90;;;;;;5052954;28;20040;-57
2022/07/31 06:09:17;;;;;;;11.85;10.55;;;17.10;99.90;;;;;;5052871;28;20032;-57
2022/07/31 06:11:42;;;;;;;10.85;9.75;;;17.20;99.90;;;;;;5052959;28;20099;-57
2022/07/31 06:14:08;;;;;;;21.95;11.25;;;17.20;99.90;;;;;;5053032;28;20025;-57
2022/07/31 06:16:34;;;;;;;12.25;9.32;;;17.30;99.90;;;;;;5052961;28;20404;-57
2022/07/31 06:19:00;;;;;;;10.38;9.35;;;17.30;99.90;;;;;;5052834;28;20025;-57
2022/07/31 06:21:26;;;;;;;12.88;10.23;;;17.40;99.90;;;;;;5052379;28;20094;-57
2022/07/31 06:23:51;;;;;;;15.63;9.95;;;17.50;99.90;;;;;;5053000;28;20021;-56
2022/07/31 06:26:17;;;;;;;18.83;9.93;;;17.50;99.90;;;;;;5052058;28;20025;-56
2022/07/31 06:28:43;;;;;;;14.48;9.82;;;17.60;99.90;;;;;;5052908;28;20131;-57
2022/07/31 06:31:18;;;;;;;12.80;10.50;;;17.60;99.90;;;;;;5052239;28;20055;-57
2022/07/31 06:33:44;;;;;;;11.27;9.70;;;17.70;99.90;;;;;;5052438;28;20457;-57
2022/07/31 06:36:10;;;;;;;11.10;9.05;;;17.70;99.90;;;;;;5051116;28;20400;-57
2022/07/31 06:38:35;;;;;;;10.10;9.10;;;17.90;99.90;;;;;;5052279;28;20048;-57
2022/07/31 06:41:01;;;;;;;14.43;9.10;;;17.90;99.90;;;;;;5052664;28;20035;-57
2022/07/31 06:43:27;;;;;;;13.05;9.82;;;18.00;99.90;;;;;;5052106;28;20072;-57
2022/07/31 06:45:52;;;;;;;10.18;8.95;;;18.10;99.90;;;;;;5052048;28;20025;-57
2022/07/31 06:48:18;;;;;;;13.25;10.60;;;18.20;99.90;;;;;;5051981;28;20079;-57
2022/07/31 06:50:44;;;;;;;11.43;10.23;;;18.40;99.90;;;;;;5052229;28;20052;-57
2022/07/31 06:53:10;;;;;;;10.75;9.65;;;18.50;99.90;;;;;;5052120;28;20108;-57
2022/07/31 06:55:35;;;;;;;11.00;9.60;;;18.50;99.90;;;;;;5052489;28;20021;-57
2022/07/31 06:58:02;;;;;;;9.68;8.52;;;18.70;99.90;;;;;;5051997;28;20132;-57
2022/07/31 07:00:28;;;;;;;10.38;8.32;;;18.80;99.90;;;;;;5052424;28;20021;-57
2022/07/31 07:02:54;;;;;;;9.57;8.60;;;18.90;99.90;;;;;;5051584;28;20401;-57
2022/07/31 07:05:20;;;;;;;9.52;8.57;;;19.00;99.90;;;;;;5051831;28;20123;-57
2022/07/31 07:07:46;;;;;;;10.55;9.27;;;19.20;99.90;;;;;;5051821;28;20079;-57
2022/07/31 07:10:12;;;;;;;13.95;9.70;;;19.50;99.90;;;;;;5051930;28;20123;-57
2022/07/31 07:12:38;;;;;;;11.73;9.95;;;19.70;99.90;;;;;;5052336;28;20111;-57
2022/07/31 07:15:04;;;;;;;17.52;11.80;;;19.70;99.90;;;;;;5051689;28;20025;-57
2022/07/31 07:17:30;;;;;;;14.90;11.25;;;20.10;99.90;;;;;;5051352;28;20032;-57
2022/07/31 07:19:55;;;;;;;15.50;12.32;;;20.30;99.90;;;;;;5050497;28;20036;-57
2022/07/31 07:22:21;;;;;;;17.60;12.98;;;20.30;99.90;;;;;;5051761;28;20116;-57
2022/07/31 07:24:47;;;;;;;15.63;11.68;;;20.50;99.90;;;;;;5052065;28;20051;-57
2022/07/31 07:27:12;;;;;;;16.90;12.23;;;20.50;99.90;;;;;;5051636;28;20033;-57
2022/07/31 07:29:38;;;;;;;16.70;12.38;;;20.60;99.90;;;;;;5051383;28;20367;-57
2022/07/31 07:32:04;;;;;;;14.73;11.40;;;20.70;99.90;;;;;;5051628;28;20021;-57
2022/07/31 07:34:30;;;;;;;15.40;11.73;;;21.00;99.90;;;;;;5051667;28;20036;-57
2022/07/31 07:36:55;;;;;;;16.25;11.93;;;21.70;99.90;;;;;;5051624;28;20025;-57
2022/07/31 07:39:21;;;;;;;11.63;10.43;;;22.20;99.90;;;;;;5055821;28;20028;-57
2022/07/31 07:41:47;;;;;;;11.85;9.80;;;22.50;99.90;;;;;;5055754;28;20093;-57
2022/07/31 07:44:13;;;;;;;13.18;9.65;;;22.60;99.90;;;;;;5055756;28;20136;-57
2022/07/31 07:46:38;;;;;;;11.70;9.18;;;22.90;99.90;;;;;;5055346;28;20044;-57
2022/07/31 07:49:05;;;;;;;10.43;7.97;;;23.10;99.90;;;;;;5055074;28;20155;-57
2022/07/31 07:51:31;;;;;;;9.75;7.47;;;23.50;99.90;;;;;;5055136;28;20040;-57
2022/07/31 07:53:57;;;;;;;9.10;6.55;;;23.90;99.90;;;;;;5054817;28;20025;-58
2022/07/31 07:56:23;;;;;;;9.55;6.18;;;24.40;99.90;;;;;;5052530;28;20040;-58
2022/07/31 07:58:49;;;;;;;8.73;5.95;;;25.20;99.90;;;;;;5054953;28;20111;-58
2022/07/31 08:01:15;;;;;;;6.30;5.03;;;25.60;99.90;;;;;;5054922;28;20028;-58
2022/07/31 08:03:41;;;;;;;8.70;4.65;;;25.70;99.90;;;;;;5054561;28;20039;-58
2022/07/31 08:06:06;;;;;;;6.57;4.97;;;26.20;99.90;;;;;;5053928;28;20036;-58
2022/07/31 08:08:32;;;;;;;7.53;5.28;;;27.30;99.90;;;;;;5054640;28;20029;-58
2022/07/31 08:10:59;;;;;;;6.20;4.80;;;27.40;99.90;;;;;;5055418;28;20371;-57
2022/07/31 08:13:25;;;;;;;5.60;4.88;;;27.80;99.90;;;;;;5054495;28;20106;-58
2022/07/31 08:15:51;;;;;;;6.75;4.95;;;28.20;99.90;;;;;;5054368;28;20544;-57
2022/07/31 08:18:17;;;;;;;6.55;4.75;;;28.90;99.90;;;;;;5054887;28;20041;-58
2022/07/31 08:20:43;;;;;;;6.13;4.55;;;28.70;99.90;;;;;;5054146;28;20017;-58
2022/07/31 08:23:08;;;;;;;5.03;4.38;;;28.90;99.90;;;;;;5054588;28;20032;-57
2022/07/31 08:25:34;;;;;;;6.13;4.65;;;30.40;99.90;;;;;;5054071;28;20505;-57
2022/07/31 08:28:00;;;;;;;8.35;4.85;;;31.00;99.90;;;;;;5054438;28;20114;-57
2022/07/31 08:30:25;;;;;;;6.65;4.13;;;31.30;99.90;;;;;;5054317;28;20052;-58
2022/07/31 08:32:51;;;;;;;6.57;4.20;;;30.90;99.90;;;;;;5055075;28;20029;-58
2022/07/31 08:35:19;;;;;;;6.63;3.78;;;30.90;99.90;;;;;;5054326;28;20021;-58
2022/07/31 08:37:45;;;;;;;8.63;3.58;;;31.20;99.90;;;;;;5054275;28;20009;-57
2022/07/31 08:40:11;;;;;;;5.20;3.25;;;32.10;99.90;;;;;;5058346;28;20021;-57
2022/07/31 08:42:37;;;;;;;7.57;3.10;;;31.70;99.90;;;;;;5058613;28;20036;-58
2022/07/31 08:45:06;;;;;;;6.32;3.10;;;33.40;99.20;;;;;;5073406;28;20041;-59
2022/07/31 08:47:34;;;;;;;5.95;2.97;;;33.90;98.10;;;;;;5073247;28;20040;-58
2022/07/31 08:50:02;;;;;;;5.55;2.72;;;34.10;96.10;;;;;;5073191;28;20028;-58
2022/07/31 08:52:31;;;;;;;3.83;2.40;;;33.40;97.20;;;;;;5074142;28;20024;-58
2022/07/31 08:54:57;;;;;;;4.75;2.40;;;33.90;95.10;;;;;;5073735;28;20492;-58
2022/07/31 08:57:25;;;;;;;6.10;2.85;;;33.50;96.20;;;;;;5074269;28;20016;-56
2022/07/31 08:59:52;;;;;;;5.13;2.20;;;34.10;95.90;;;;;;5073562;28;20477;-56
2022/07/31 09:02:18;;;;;;;7.25;2.10;;;34.50;94.60;;;;;;5074340;28;20024;-56
2022/07/31 09:04:43;;;;;;;5.75;2.40;;;34.70;94.20;;;;;;5073581;28;20044;-56
2022/07/31 09:07:13;;;;;;;6.13;2.40;;;35.50;93.50;;;;;;5072642;28;20110;-55
2022/07/31 09:09:42;;;;;;;3.92;2.28;;;35.60;93.10;;;;;;5074017;28;20028;-56
2022/07/31 09:12:08;;;;;;;5.45;2.03;;;35.70;91.70;;;;;;5073601;28;20123;-56
2022/07/31 09:14:34;;;;;;;3.78;2.22;;;35.60;92.00;;;;;;5073548;28;20096;-56
2022/07/31 09:17:02;;;;;;;3.95;1.90;;;36.70;91.00;;;;;;5073986;28;20032;-56
2022/07/31 09:19:42;;;;;;;9.63;2.70;;;36.60;90.10;;;;;;5073513;28;20370;-56
2022/07/31 09:22:24;;;;;;;3.10;1.80;;;37.90;88.30;;;;;;5073615;28;20032;-56
2022/07/31 09:24:51;;;;;;;5.93;2.60;;;38.80;83.90;;;;;;5073521;28;20021;-55
2022/07/31 09:27:16;;;;;;;3.53;2.10;;;38.40;85.30;;;;;;5073431;28;20374;-56
2022/07/31 09:29:48;;;;;;;3.83;2.00;;;37.90;81.60;;;;;;5072369;28;20119;-56
2022/07/31 09:32:15;;;;;;;2.88;1.80;;;38.50;81.70;;;;;;5061128;28;20025;-56
2022/07/31 09:34:42;;;;;;;7.35;2.30;;;38.60;83.20;;;;;;5052757;28;20397;-56
2022/07/31 09:37:11;;;;;;;6.78;2.17;;;39.90;81.70;;;;;;5053056;28;20020;-56
2022/07/31 09:39:37;;;;;;;4.57;1.90;;;39.90;75.80;;;;;;5053311;28;20086;-56
2022/07/31 09:42:05;;;;;;;3.83;2.20;;;39.20;78.40;;;;;;5053173;28;20028;-56
2022/07/31 09:44:50;;;;;;;4.53;2.10;;;38.60;76.50;;;;;;5053140;28;20048;-56
2022/07/31 09:47:25;;;;;;;4.75;1.80;;;40.80;75.70;;;;;;5053005;28;20041;-55
2022/07/31 09:49:59;;;;;;;3.47;2.15;;;42.30;73.80;;;;;;5053131;28;20083;-55
2022/07/31 09:52:27;;;;;;;5.30;2.30;;;44.30;68.40;;;;;;5052521;28;20112;-55
2022/07/31 09:55:05;;;;;;;14.18;4.20;;;43.40;70.60;;;;;;5053128;28;20478;-56
2022/07/31 09:57:33;;;;;;;4.28;1.92;;;44.40;67.80;;;;;;5054524;28;20021;-56
2022/07/31 09:59:59;;;;;;;5.10;2.05;;;45.00;68.00;;;;;;5053226;28;20036;-56
2022/07/31 10:02:26;;;;;;;4.45;1.90;;;45.60;66.70;;;;;;5052994;28;20033;-56
2022/07/31 10:04:54;;;;;;;4.90;2.03;;;44.60;63.00;;;;;;5052852;28;20448;-55
2022/07/31 10:07:24;;;;;;;2.72;1.85;;;43.00;64.10;;;;;;5052490;28;20139;-58
2022/07/31 10:09:52;;;;;;;4.20;1.75;;;44.50;66.20;;;;;;5052748;28;20036;-56
2022/07/31 10:12:19;;;;;;;4.75;1.73;;;46.70;65.60;;;;;;5052308;28;20032;-56
2022/07/31 10:14:48;;;;;;;3.40;1.63;;;46.90;62.20;;;;;;5051625;28;20032;-56
2022/07/31 10:17:23;;;;;;;4.05;1.88;;;47.60;61.50;;;;;;5051990;28;20104;-56
2022/07/31 10:19:52;;;;;;;4.82;2.00;;;48.70;59.60;;;;;;5051905;28;20021;-57
2022/07/31 10:22:20;;;;;;;5.57;2.40;;;48.40;59.30;;;;;;5052536;28;20056;-58
2022/07/31 10:24:47;;;;;;;3.53;2.00;;;48.00;57.40;;;;;;5052645;28;20024;-58
2022/07/31 10:27:15;;;;;;;3.08;1.90;;;48.00;60.30;;;;;;5051974;28;20041;-57
2022/07/31 10:29:41;;;;;;;4.35;1.80;;;48.20;59.00;;;;;;5052437;28;20021;-58
2022/07/31 10:32:08;;;;;;;4.88;1.90;;;46.00;63.00;;;;;;5052488;28;20067;-58
2022/07/31 10:34:34;;;;;;;5.38;1.90;;;44.50;60.50;;;;;;5052367;28;20032;-57
2022/07/31 10:37:15;;;;;;;3.40;1.80;;;43.20;63.40;;;;;;5052332;28;20112;-57
2022/07/31 10:40:05;;;;;;;4.25;1.70;;;41.40;64.60;;;;;;5052162;28;20029;-57
2022/07/31 10:42:41;;;;;;;4.30;1.83;;;40.20;65.70;;;;;;5051474;28;20405;-56
2022/07/31 10:45:10;;;;;;;5.82;1.85;;;40.00;64.90;;;;;;5052109;28;20056;-57
2022/07/31 10:47:36;;;;;;;2.60;1.73;;;40.10;63.80;;;;;;5052053;28;20512;-57
2022/07/31 10:50:04;;;;;;;2.38;1.60;;;38.80;63.90;;;;;;5051334;28;20057;-57
2022/07/31 10:52:35;;;;;;;2.97;1.90;;;39.20;66.10;;;;;;5051893;28;20104;-57
2022/07/31 10:55:13;;;;;;;1.67;1.40;;;40.50;65.00;;;;;;5051510;28;20031;-57
2022/07/31 10:57:39;;;;;;;3.78;1.67;;;40.80;64.20;;;;;;5052002;28;20029;-57
2022/07/31 11:00:10;;;;;;;4.68;2.25;;;41.40;64.80;;;;;;5052094;28;20099;-57
2022/07/31 11:02:36;;;;;;;3.10;1.70;;;40.80;65.50;;;;;;5052321;28;20029;-57
2022/07/31 11:05:13;;;;;;;1.75;1.50;;;41.00;63.60;;;;;;5051844;28;20432;-57
2022/07/31 11:07:41;;;;;;;3.72;1.58;;;40.90;64.50;;;;;;5050656;28;20040;-57
2022/07/31 11:10:12;;;;;;;4.35;1.60;;;40.80;62.90;;;;;;5054960;28;20448;-57
2022/07/31 11:12:38;;;;;;;2.53;1.60;;;40.80;64.10;;;;;;5055332;28;20515;-57
2022/07/31 11:15:15;;;;;;;4.45;1.60;;;40.80;65.00;;;;;;5056612;28;20056;-57
2022/07/31 11:17:41;;;;;;;3.28;1.70;;;40.90;62.50;;;;;;5051385;28;20036;-58
2022/07/31 11:20:34;;;;;;;3.42;1.55;;;39.30;66.30;;;;;;5051420;28;20527;-57
2022/07/31 11:23:06;;;;;;;2.65;1.52;;;40.50;65.40;;;;;;5051320;28;20397;-58
2022/07/31 11:25:35;;;;;;;2.40;1.67;;;40.60;64.90;;;;;;5053268;28;20020;-57
2022/07/31 11:28:23;;;;;;;2.22;1.58;;;41.00;65.00;;;;;;5066424;28;20094;-57
2022/07/31 11:30:54;;;;;;;3.85;1.65;;;40.50;64.40;;;;;;5031605;28;20112;-57
2022/07/31 11:33:42;;;;;;;2.47;1.65;;;40.10;64.70;;;;;;5031594;28;20504;-56
2022/07/31 11:36:10;;;;;;;3.92;1.90;;;40.80;66.10;;;;;;5031673;28;20037;-56
2022/07/31 11:38:38;;;;;;;3.92;1.83;;;40.40;64.50;;;;;;5044273;28;20454;-56
2022/07/31 11:41:04;;;;;;;2.70;1.63;;;40.30;65.20;;;;;;5051615;28;20025;-57
2022/07/31 11:43:30;;;;;;;3.47;1.98;;;40.10;66.10;;;;;;5049683;28;20041;-56
2022/07/31 11:45:56;;;;;;;1.92;1.70;;;40.30;66.30;;;;;;5051267;28;20027;-57
2022/07/31 11:48:24;;;;;;;4.80;1.95;;;40.60;64.70;;;;;;5051289;28;20112;-57
2022/07/31 11:50:50;;;;;;;2.00;1.70;;;40.30;65.60;;;;;;5051507;28;20405;-57
2022/07/31 11:53:17;;;;;;;3.92;1.90;;;39.60;67.60;;;;;;5050977;28;20021;-56
2022/07/31 11:55:52;;;;;;;4.30;2.15;;;39.20;66.40;;;;;;5050096;28;20034;-57
2022/07/31 11:58:19;;;;;;;3.70;2.40;;;39.60;67.50;;;;;;5051475;28;20056;-56
2022/07/31 12:00:50;;;;;;;4.25;2.13;;;38.80;66.50;;;;;;5051709;28;20039;-56
2022/07/31 12:03:35;;;;;;;2.28;1.90;;;38.10;68.30;;;;;;5051953;28;20033;-57
2022/07/31 12:06:01;;;;;;;2.83;1.70;;;38.50;69.60;;;;;;5051376;28;20032;-57
2022/07/31 12:08:28;;;;;;;4.93;2.00;;;39.50;69.00;;;;;;5051419;28;20044;-57
2022/07/31 12:10:55;;;;;;;2.97;2.00;;;39.50;66.90;;;;;;5051555;28;20021;-57
2022/07/31 12:13:22;;;;;;;2.55;1.73;;;38.20;68.90;;;;;;5051603;28;20020;-58
2022/07/31 12:16:02;;;;;;;3.92;1.85;;;37.90;69.70;;;;;;5051433;28;20032;-58
2022/07/31 12:18:29;;;;;;;1.90;1.65;;;39.10;68.60;;;;;;5051849;28;20160;-58
2022/07/31 12:21:03;;;;;;;2.85;2.00;;;38.50;70.00;;;;;;5051444;28;20036;-58
2022/07/31 12:23:47;;;;;;;3.40;1.95;;;38.00;70.40;;;;;;5051312;28;20496;-57
2022/07/31 12:26:27;;;;;;;3.72;2.20;;;37.70;70.70;;;;;;5052700;28;20505;-57
2022/07/31 12:29:06;;;;;;;2.10;1.55;;;38.70;69.20;;;;;;5054777;28;20167;-55
2022/07/31 12:31:48;;;;;;;3.42;2.08;;;38.20;70.70;;;;;;5054128;28;20062;-57
2022/07/31 12:34:39;;;;;;;2.42;1.92;;;37.80;71.60;;;;;;5052794;28;20021;-57
2022/07/31 12:37:07;;;;;;;3.65;2.05;;;37.80;69.60;;;;;;5051728;28;20021;-57
2022/07/31 12:39:53;;;;;;;3.22;2.08;;;37.10;73.00;;;;;;5055914;28;20443;-57
2022/07/31 12:42:23;;;;;;;2.45;1.88;;;37.20;72.20;;;;;;5061462;28;20515;-57
2022/07/31 12:44:50;;;;;;;5.10;1.98;;;37.20;73.80;;;;;;5074513;28;20063;-58
2022/07/31 12:47:23;;;;;;;2.75;1.75;;;37.70;72.50;;;;;;5074192;28;20378;-58
2022/07/31 12:49:49;;;;;;;3.55;2.00;;;38.30;71.60;;;;;;5074417;28;20066;-58
2022/07/31 12:52:15;;;;;;;3.67;1.75;;;37.80;70.60;;;;;;5073674;28;20034;-58